Time;durP1;ratioP1;P1;durP2;ratioP2;P2;SDS_P1;SDS_P2;PMS_P1;PMS_P2;Temp;Humidity;BMP_temperature;BMP_pressure;BME280_temperature;BME280_humidity;BME280_pressure;Samples;Min_cycle;Max_cycle;Signal;HPM_P1;HPM_P2
2022/09/17 00:02:17;;;;;;;13.95;3.13;;;11.30;99.90;;;;;;5075874;28;20040;-83
2022/09/17 00:07:35;;;;;;;13.68;2.60;;;11.30;99.90;;;;;;5060867;28;20456;-84
2022/09/17 00:16:32;;;;;;;10.82;2.38;;;11.30;99.90;;;;;;5030122;28;20124;-86
2022/09/17 00:24:49;;;;;;;11.55;2.42;;;11.30;99.90;;;;;;4997135;28;20513;-87
2022/09/17 00:27:24;;;;;;;12.98;2.33;;;11.30;99.90;;;;;;4999680;28;20081;-85
2022/09/17 00:29:52;;;;;;;17.25;2.35;;;11.30;99.90;;;;;;4969794;28;20470;-85
2022/09/17 00:35:18;;;;;;;10.27;2.08;;;11.40;99.90;;;;;;5001429;28;20042;-85
2022/09/17 00:38:04;;;;;;;11.98;2.63;;;11.40;99.90;;;;;;4975718;28;20513;-85
2022/09/17 00:40:30;;;;;;;12.05;2.03;;;11.40;99.90;;;;;;4987650;28;20536;-85
2022/09/17 00:43:37;;;;;;;12.25;2.30;;;11.40;99.90;;;;;;5000547;28;20071;-85
2022/09/17 00:53:13;;;;;;;16.45;2.20;;;11.30;99.90;;;;;;5045886;28;20089;-85
2022/09/17 00:55:56;;;;;;;9.50;1.80;;;11.30;99.90;;;;;;5053896;28;20048;-84
2022/09/17 00:58:26;;;;;;;11.35;2.28;;;11.30;99.90;;;;;;5052559;28;20032;-84
2022/09/17 01:01:23;;;;;;;9.82;2.40;;;11.20;99.90;;;;;;5041427;28;20067;-85
2022/09/17 01:03:49;;;;;;;11.75;2.53;;;11.20;99.90;;;;;;5042357;28;20052;-84
2022/09/17 01:06:51;;;;;;;11.27;2.17;;;11.20;99.90;;;;;;5061420;28;20044;-85
2022/09/17 01:13:53;;;;;;;11.50;2.20;;;11.10;99.90;;;;;;5045198;28;20037;-85
2022/09/17 01:16:18;;;;;;;10.10;2.05;;;11.10;99.90;;;;;;5060773;28;20060;-81
2022/09/17 01:18:47;;;;;;;14.45;2.30;;;11.00;99.90;;;;;;5056386;28;20055;-85
2022/09/17 01:21:40;;;;;;;12.00;2.60;;;11.00;99.90;;;;;;5074277;28;20044;-85
2022/09/17 01:24:57;;;;;;;12.02;2.13;;;11.00;99.90;;;;;;5045308;28;20100;-85
2022/09/17 01:28:00;;;;;;;11.63;2.05;;;10.90;99.90;;;;;;5043569;28;20053;-85
2022/09/17 01:31:08;;;;;;;15.60;2.15;;;11.00;99.90;;;;;;5064297;28;20047;-84
2022/09/17 01:40:34;;;;;;;16.10;2.67;;;10.90;99.90;;;;;;5073451;28;20051;-85
2022/09/17 01:43:36;;;;;;;13.23;2.22;;;10.90;99.90;;;;;;5081459;28;20047;-85
2022/09/17 01:46:20;;;;;;;11.10;2.13;;;10.90;99.90;;;;;;5080769;28;20101;-84
2022/09/17 01:48:58;;;;;;;15.18;2.40;;;10.90;99.90;;;;;;5080213;28;20036;-84
2022/09/17 01:54:52;;;;;;;15.52;2.25;;;11.00;99.90;;;;;;5068905;28;20048;-85
2022/09/17 01:57:44;;;;;;;19.45;2.05;;;11.00;99.90;;;;;;5073366;28;20488;-85
2022/09/17 02:03:36;;;;;;;12.38;2.13;;;10.90;99.90;;;;;;5020910;28;20053;-85
2022/09/17 02:13:04;;;;;;;12.13;2.30;;;10.90;99.90;;;;;;5077680;28;20040;-85
2022/09/17 02:15:55;;;;;;;10.88;1.70;;;10.90;99.90;;;;;;5078934;28;20040;-85
2022/09/17 02:18:44;;;;;;;13.10;1.95;;;10.90;99.90;;;;;;5075461;28;20032;-85
2022/09/17 02:25:00;;;;;;;;;;;10.90;99.90;;;;;;5073772;28;20036;-85
2022/09/17 02:27:55;;;;;;;11.48;2.00;;;10.90;99.90;;;;;;5069392;28;19920;-81
2022/09/17 02:30:31;;;;;;;10.75;1.90;;;10.90;99.90;;;;;;5077162;28;20040;-82
2022/09/17 02:33:27;;;;;;;7.38;1.80;;;10.90;99.90;;;;;;5076718;28;20125;-83
2022/09/17 02:36:06;;;;;;;10.45;1.67;;;10.90;99.90;;;;;;5031001;28;20079;-82
2022/09/17 02:42:14;;;;;;;17.08;1.83;;;10.90;99.90;;;;;;5049051;28;20052;-82
2022/09/17 02:45:11;;;;;;;11.10;1.83;;;10.80;99.90;;;;;;5045075;28;20120;-85
2022/09/17 02:48:11;;;;;;;5.70;1.23;;;10.80;99.90;;;;;;5035341;28;20049;-85
2022/09/17 02:51:17;;;;;;;7.63;1.60;;;10.90;99.90;;;;;;5055493;28;20045;-85
2022/09/17 02:54:32;;;;;;;9.60;1.63;;;10.90;99.90;;;;;;5043324;28;20558;-85
2022/09/17 03:00:37;;;;;;;10.68;1.73;;;10.80;99.90;;;;;;5052105;28;20083;-85
2022/09/17 03:03:21;;;;;;;7.35;2.40;;;10.80;99.90;;;;;;5042887;28;20260;-85
2022/09/17 03:09:16;;;;;;;6.85;1.70;;;10.80;99.90;;;;;;5019205;28;20053;-87
2022/09/17 03:12:17;;;;;;;9.52;1.77;;;10.80;99.90;;;;;;5002408;28;20042;-86
2022/09/17 03:14:48;;;;;;;11.00;1.83;;;10.80;99.90;;;;;;5019444;28;20042;-86
2022/09/17 03:17:28;;;;;;;12.98;1.80;;;10.80;99.90;;;;;;4998525;28;20092;-85
2022/09/17 03:20:06;;;;;;;7.57;1.73;;;10.80;99.90;;;;;;4994361;28;20073;-86
2022/09/17 03:22:35;;;;;;;9.32;1.83;;;10.80;99.90;;;;;;4993615;28;20060;-86
2022/09/17 03:25:31;;;;;;;9.70;2.67;;;10.80;99.90;;;;;;4984777;28;20128;-85
2022/09/17 03:28:01;;;;;;;15.80;1.88;;;10.70;99.90;;;;;;4991337;28;20057;-85
2022/09/17 03:30:27;;;;;;;11.38;1.92;;;10.80;99.90;;;;;;5001293;28;20045;-84
2022/09/17 03:32:58;;;;;;;12.32;2.10;;;10.80;99.90;;;;;;5010686;28;20042;-85
2022/09/17 03:38:15;;;;;;;12.45;1.80;;;10.90;99.90;;;;;;5031086;28;20054;-85
2022/09/17 03:41:03;;;;;;;11.13;1.88;;;10.80;99.90;;;;;;5027300;28;20059;-85
2022/09/17 03:43:38;;;;;;;10.98;1.98;;;10.80;99.90;;;;;;5041698;28;20032;-85
2022/09/17 03:46:18;;;;;;;15.88;2.38;;;10.80;99.90;;;;;;5055853;28;20123;-85
2022/09/17 03:48:52;;;;;;;12.10;1.88;;;10.90;99.90;;;;;;5024533;28;20034;-85
2022/09/17 03:55:02;;;;;;;10.48;1.88;;;10.80;99.90;;;;;;5072395;28;20091;-86
2022/09/17 04:01:02;;;;;;;10.20;1.85;;;10.80;99.90;;;;;;5075301;28;20558;-85
2022/09/17 04:03:29;;;;;;;10.10;2.47;;;10.80;99.90;;;;;;5038028;28;20048;-85
2022/09/17 04:06:22;;;;;;;11.45;1.88;;;10.70;99.90;;;;;;5046180;28;20473;-84
2022/09/17 04:08:59;;;;;;;10.07;2.08;;;10.70;99.90;;;;;;5039512;28;20052;-85
2022/09/17 04:12:12;;;;;;;9.00;1.70;;;10.70;99.90;;;;;;5045129;28;20041;-84
2022/09/17 04:14:42;;;;;;;13.18;2.45;;;10.60;99.90;;;;;;5068511;28;20045;-85
2022/09/17 04:17:17;;;;;;;8.95;2.20;;;10.70;99.90;;;;;;5039938;28;20084;-85
2022/09/17 04:19:47;;;;;;;15.90;2.53;;;10.60;99.90;;;;;;5050068;28;20055;-85
2022/09/17 04:22:21;;;;;;;14.25;2.20;;;10.60;99.90;;;;;;5032053;28;20033;-85
2022/09/17 04:25:33;;;;;;;13.02;2.78;;;10.60;99.90;;;;;;5038571;28;20519;-86
2022/09/17 04:31:28;;;;;;;9.98;1.70;;;10.60;99.90;;;;;;5055935;28;20048;-85
2022/09/17 04:36:55;;;;;;;11.52;2.38;;;10.50;99.90;;;;;;5062765;28;20059;-85
2022/09/17 04:39:36;;;;;;;14.75;2.20;;;10.60;99.90;;;;;;5061126;28;20043;-85
2022/09/17 04:42:05;;;;;;;11.00;2.35;;;10.60;99.90;;;;;;5059314;28;20098;-85
2022/09/17 04:44:38;;;;;;;11.02;2.17;;;10.50;99.90;;;;;;5060033;28;20060;-85
2022/09/17 04:47:12;;;;;;;14.10;2.10;;;10.60;99.90;;;;;;5044116;28;20047;-84
2022/09/17 04:49:59;;;;;;;12.50;2.03;;;10.50;99.90;;;;;;5073294;28;20033;-85
2022/09/17 04:58:51;;;;;;;15.95;2.42;;;10.40;99.90;;;;;;4979674;28;20073;-85
2022/09/17 05:08:22;;;;;;;11.70;2.35;;;10.40;99.90;;;;;;5055804;28;20040;-85
2022/09/17 05:10:56;;;;;;;;;;;10.40;99.90;;;;;;5042719;28;20428;-85
2022/09/17 05:16:21;;;;;;;12.75;2.83;;;10.40;99.90;;;;;;5045155;28;20044;-85
2022/09/17 05:18:52;;;;;;;15.90;2.28;;;10.40;99.90;;;;;;5027883;28;20106;-84
2022/09/17 05:25:15;;;;;;;11.18;2.22;;;10.40;99.90;;;;;;5043775;28;20127;-85
2022/09/17 05:28:04;;;;;;;16.65;2.00;;;10.30;99.90;;;;;;5052883;28;20102;-84
2022/09/17 05:30:37;;;;;;;12.45;2.28;;;10.30;99.90;;;;;;5053258;28;20047;-85
2022/09/17 05:33:11;;;;;;;7.00;2.20;;;10.30;99.90;;;;;;5037153;28;20041;-85
2022/09/17 05:35:45;;;;;;;12.65;2.33;;;10.30;99.90;;;;;;5024349;28;20504;-86
2022/09/17 05:38:25;;;;;;;8.13;1.67;;;10.30;99.90;;;;;;5034543;28;20076;-84
2022/09/17 05:40:50;;;;;;;10.07;2.20;;;10.30;99.90;;;;;;4995614;28;20526;-85
2022/09/17 05:49:23;;;;;;;10.57;1.83;;;10.30;99.90;;;;;;4995438;28;20046;-84
2022/09/17 05:52:02;;;;;;;7.07;1.60;;;10.20;99.90;;;;;;4979899;28;20058;-85
2022/09/17 05:55:05;;;;;;;8.55;1.50;;;10.20;99.90;;;;;;4991624;28;20049;-86
2022/09/17 05:57:42;;;;;;;11.93;1.73;;;10.30;99.90;;;;;;4981907;28;20061;-85
2022/09/17 06:00:48;;;;;;;6.25;1.60;;;10.30;99.90;;;;;;4986000;28;20044;-85
2022/09/17 06:06:29;;;;;;;7.63;1.77;;;10.30;99.90;;;;;;5014333;28;20109;-84
2022/09/17 06:12:23;;;;;;;12.50;2.38;;;10.40;99.90;;;;;;5008543;28;20089;-87
2022/09/17 06:18:06;;;;;;;8.70;1.58;;;10.40;99.90;;;;;;5075756;28;20068;-85
2022/09/17 06:20:43;;;;;;;9.30;1.40;;;10.50;99.90;;;;;;5076008;28;20112;-88
2022/09/17 06:23:36;;;;;;;7.82;1.50;;;10.40;99.90;;;;;;5058540;28;20552;-88
2022/09/17 06:26:08;;;;;;;8.45;1.40;;;9.30;99.90;;;;;;5046342;28;20109;-86
2022/09/17 06:28:42;;;;;;;7.25;1.63;;;10.50;99.90;;;;;;5075836;28;20039;-86
2022/09/17 06:31:34;;;;;;;9.80;1.95;;;11.00;99.90;;;;;;5065579;28;20047;-85
2022/09/17 06:34:04;;;;;;;9.38;1.75;;;10.60;99.90;;;;;;5053840;28;20067;-86
2022/09/17 06:37:10;;;;;;;9.05;1.40;;;10.70;99.90;;;;;;5066498;28;20048;-87
2022/09/17 06:40:14;;;;;;;11.60;1.88;;;10.70;99.90;;;;;;5082346;28;20036;-87
2022/09/17 06:43:23;;;;;;;5.13;1.17;;;10.70;99.90;;;;;;5010306;28;20042;-87
2022/09/17 06:46:06;;;;;;;12.52;1.67;;;10.80;99.90;;;;;;5029190;28;20533;-86
2022/09/17 06:48:44;;;;;;;20.02;3.53;;;10.80;99.90;;;;;;5076768;28;20040;-86
2022/09/17 06:51:23;;;;;;;11.38;4.43;;;10.80;99.90;;;;;;5063590;28;20085;-82
2022/09/17 06:54:07;;;;;;;7.47;1.83;;;10.80;99.90;;;;;;5081380;28;20484;-85
2022/09/17 06:56:39;;;;;;;7.20;1.48;;;10.80;99.90;;;;;;5074399;28;20050;-85
2022/09/17 07:02:25;;;;;;;13.88;2.53;;;11.00;99.90;;;;;;5097395;28;20142;-85
2022/09/17 07:05:02;;;;;;;8.77;2.05;;;11.20;99.90;;;;;;5057012;28;20036;-85
2022/09/17 07:07:40;;;;;;;14.50;2.92;;;11.30;99.90;;;;;;5076459;28;20500;-85
2022/09/17 07:10:06;;;;;;;7.40;1.50;;;11.40;99.90;;;;;;5055579;28;20085;-82
2022/09/17 07:12:57;;;;;;;6.00;1.10;;;11.50;99.90;;;;;;5059186;28;20131;-84
2022/09/17 07:15:29;;;;;;;6.55;1.60;;;11.40;99.90;;;;;;5074739;28;20047;-83
2022/09/17 07:17:55;;;;;;;7.03;1.38;;;11.40;99.90;;;;;;5078834;28;20040;-84
2022/09/17 07:20:34;;;;;;;9.20;1.38;;;11.40;99.90;;;;;;5078146;28;20484;-83
2022/09/17 07:23:36;;;;;;;9.40;1.40;;;11.40;99.90;;;;;;5019451;28;20053;-84
2022/09/17 07:26:16;;;;;;;6.47;1.20;;;11.50;99.90;;;;;;5006515;28;20092;-83
2022/09/17 07:29:22;;;;;;;8.10;1.42;;;11.50;99.90;;;;;;5061790;28;20412;-84
2022/09/17 07:32:01;;;;;;;9.07;1.60;;;11.60;99.90;;;;;;5059385;28;20424;-85
2022/09/17 07:34:56;;;;;;;9.18;1.10;;;11.80;99.90;;;;;;5070807;28;20047;-85
2022/09/17 07:37:27;;;;;;;6.30;1.58;;;12.10;99.90;;;;;;5062768;28;20513;-84
2022/09/17 07:39:56;;;;;;;4.50;1.38;;;12.30;99.90;;;;;;5060801;28;20428;-85
2022/09/17 07:42:28;;;;;;;5.93;1.60;;;12.50;99.90;;;;;;5052907;28;20493;-84
2022/09/17 07:45:03;;;;;;;7.43;1.52;;;12.60;99.90;;;;;;5073564;28;20058;-84
2022/09/17 07:47:57;;;;;;;2.63;0.70;;;12.80;99.90;;;;;;5077330;28;20040;-85
2022/09/17 07:53:25;;;;;;;6.15;0.80;;;12.90;99.90;;;;;;5084765;28;20646;-85
2022/09/17 07:55:54;;;;;;;3.85;1.05;;;12.90;99.90;;;;;;5056441;28;20082;-83
2022/09/17 07:58:36;;;;;;;6.45;1.25;;;13.00;99.90;;;;;;5071280;28;20048;-84
2022/09/17 08:04:16;;;;;;;4.97;0.80;;;13.00;99.90;;;;;;5060605;28;20044;-85
2022/09/17 08:09:36;;;;;;;5.43;1.05;;;13.20;99.90;;;;;;5058595;28;20040;-85
2022/09/17 08:15:33;;;;;;;;;;;;;;;;;;;;;
2022/09/17 08:18:19;;;;;;;3.60;1.00;;;13.10;99.90;;;;;;5066376;28;20050;-84
2022/09/17 08:21:01;;;;;;;7.75;1.35;;;13.00;99.90;;;;;;5051266;28;20571;-83
2022/09/17 08:24:05;;;;;;;7.30;1.50;;;12.90;99.90;;;;;;5064344;28;20504;-85
2022/09/17 08:26:55;;;;;;;7.25;1.13;;;12.80;99.90;;;;;;5074394;28;20047;-85
2022/09/17 08:29:44;;;;;;;5.60;1.23;;;12.80;99.90;;;;;;5070423;28;20052;-84
2022/09/17 08:32:21;;;;;;;6.80;1.60;;;12.70;99.90;;;;;;5063219;28;20067;-85
2022/09/17 08:34:57;;;;;;;3.78;1.13;;;12.70;99.90;;;;;;5044017;28;20133;-84
2022/09/17 08:40:23;;;;;;;7.00;1.55;;;12.90;99.90;;;;;;5073326;28;20101;-84
2022/09/17 08:43:18;;;;;;;7.07;1.15;;;13.00;99.90;;;;;;5076480;28;20117;-84
2022/09/17 08:52:02;;;;;;;5.55;1.30;;;13.10;99.90;;;;;;5084307;28;20036;-85
2022/09/17 09:00:57;;;;;;;4.75;1.10;;;13.00;99.90;;;;;;5060401;28;20502;-84
2022/09/17 09:04:27;;;;;;;5.13;1.30;;;12.90;99.90;;;;;;5063095;28;20091;-85
2022/09/17 09:10:54;;;;;;;8.02;1.45;;;12.90;99.90;;;;;;5075433;28;20086;-84
2022/09/17 09:13:27;;;;;;;6.75;1.40;;;12.90;99.90;;;;;;5059100;28;20090;-84
2022/09/17 09:16:25;;;;;;;7.13;1.23;;;13.00;99.90;;;;;;5074508;28;20496;-84
2022/09/17 09:22:29;;;;;;;6.25;1.13;;;13.10;99.90;;;;;;5042250;28;20040;-85
2022/09/17 09:25:01;;;;;;;4.22;1.05;;;13.10;99.90;;;;;;5066301;28;20040;-85
2022/09/17 09:27:54;;;;;;;4.45;0.90;;;13.00;99.90;;;;;;5059761;28;20078;-85
2022/09/17 09:30:38;;;;;;;3.60;0.90;;;13.00;99.90;;;;;;5045996;28;20598;-85
2022/09/17 09:33:38;;;;;;;4.80;1.40;;;13.00;99.90;;;;;;5061135;28;20519;-84
2022/09/17 09:36:37;;;;;;;6.80;1.30;;;12.90;99.90;;;;;;5061470;28;20123;-84
2022/09/17 09:39:40;;;;;;;6.00;1.10;;;12.80;99.90;;;;;;5068757;28;20051;-85
2022/09/17 09:46:23;;;;;;;5.20;0.90;;;12.80;99.90;;;;;;5071575;28;20040;-84
2022/09/17 09:49:29;;;;;;;6.20;1.17;;;12.90;99.90;;;;;;5054194;28;20056;-84
2022/09/17 09:52:19;;;;;;;9.07;1.23;;;12.90;99.90;;;;;;5076887;28;20122;-85
2022/09/17 09:55:33;;;;;;;3.67;1.00;;;13.10;99.90;;;;;;5077516;28;20085;-85
2022/09/17 09:58:30;;;;;;;5.88;1.25;;;13.20;99.90;;;;;;5084876;28;20104;-85
2022/09/17 10:01:14;;;;;;;7.20;1.17;;;13.20;99.90;;;;;;5065256;28;20050;-85
2022/09/17 10:03:57;;;;;;;6.90;1.10;;;13.20;99.90;;;;;;5055012;28;20040;-85
2022/09/17 10:06:25;;;;;;;;;;;13.20;99.90;;;;;;5064551;28;20055;-85
2022/09/17 10:09:03;;;;;;;5.95;1.15;;;13.20;99.90;;;;;;5056860;28;20268;-85
2022/09/17 10:12:13;;;;;;;10.40;1.52;;;13.30;99.90;;;;;;5044642;28;20396;-84
2022/09/17 10:14:31;;;;;;;7.00;1.35;;;13.30;99.90;;;;;;5050504;28;20446;-85
2022/09/17 10:17:37;;;;;;;10.50;1.40;;;13.40;99.90;;;;;;5056302;28;20523;-85
2022/09/17 10:20:36;;;;;;;7.43;1.40;;;13.50;99.90;;;;;;5055328;28;20484;-85
2022/09/17 10:23:14;;;;;;;5.85;1.30;;;13.60;99.90;;;;;;5072114;28;20044;-85
2022/09/17 10:25:47;;;;;;;7.00;1.50;;;13.80;99.90;;;;;;5060782;28;20046;-85
2022/09/17 10:28:58;;;;;;;7.97;1.45;;;14.00;99.90;;;;;;5046370;28;20093;-85
2022/09/17 10:34:55;;;;;;;7.28;1.30;;;14.20;99.90;;;;;;5052512;28;20062;-85
2022/09/17 10:37:44;;;;;;;4.85;0.88;;;14.40;99.90;;;;;;5055843;28;20243;-84
2022/09/17 10:40:38;;;;;;;4.00;0.82;;;14.10;99.90;;;;;;5056271;28;20066;-83
2022/09/17 10:43:13;;;;;;;;;;;13.80;99.90;;;;;;5083044;28;20043;-84
2022/09/17 10:45:55;;;;;;;3.10;0.60;;;13.40;99.90;;;;;;5060524;28;19915;-84
2022/09/17 10:48:39;;;;;;;4.85;0.80;;;13.20;99.90;;;;;;5052887;28;20085;-84
2022/09/17 10:51:07;;;;;;;4.72;1.00;;;13.10;99.90;;;;;;5047604;28;20040;-84
2022/09/17 10:53:56;;;;;;;5.30;1.23;;;13.00;99.90;;;;;;5071079;28;20045;-84
2022/09/17 10:59:46;;;;;;;8.48;1.20;;;13.00;99.90;;;;;;5054813;28;20115;-84
2022/09/17 11:02:39;;;;;;;9.87;1.37;;;13.10;99.90;;;;;;5074247;28;20087;-84
2022/09/17 11:06:02;;;;;;;6.93;1.00;;;13.20;99.90;;;;;;5069226;28;20045;-85
2022/09/17 11:09:15;;;;;;;5.72;1.10;;;13.30;99.90;;;;;;5061639;28;20048;-84
2022/09/17 11:12:41;;;;;;;6.43;0.90;;;13.40;99.90;;;;;;5062034;28;20066;-84
2022/09/17 11:15:37;;;;;;;6.80;1.00;;;13.50;99.90;;;;;;5034265;28;20554;-85
2022/09/17 11:18:36;;;;;;;3.97;0.95;;;13.50;99.90;;;;;;5081942;28;20496;-84
2022/09/17 11:22:01;;;;;;;5.80;1.10;;;13.50;99.90;;;;;;5037152;28;20523;-84
2022/09/17 11:24:50;;;;;;;6.47;1.02;;;13.50;99.90;;;;;;5071048;28;20048;-84
2022/09/17 11:27:53;;;;;;;8.10;1.08;;;13.40;99.90;;;;;;5047138;28;20150;-84
2022/09/17 11:30:27;;;;;;;8.50;1.40;;;13.50;99.90;;;;;;5045151;28;20036;-84
2022/09/17 11:33:55;;;;;;;;;;;;;;;;;;;;;
2022/09/17 11:36:32;;;;;;;4.43;0.90;;;13.60;99.90;;;;;;5073512;28;20051;-85
2022/09/17 11:39:56;;;;;;;7.25;1.33;;;13.70;99.90;;;;;;5052924;28;20522;-86
2022/09/17 11:42:32;;;;;;;3.90;0.85;;;13.90;99.90;;;;;;5047082;28;20047;-86
2022/09/17 11:45:46;;;;;;;2.95;0.60;;;14.00;99.90;;;;;;5037448;28;20483;-85
2022/09/17 11:48:19;;;;;;;2.88;0.70;;;14.10;99.90;;;;;;5033675;28;20071;-85
2022/09/17 11:51:00;;;;;;;6.07;1.48;;;14.20;99.90;;;;;;5044146;28;20067;-84
2022/09/17 11:53:55;;;;;;;4.10;1.00;;;14.30;99.90;;;;;;5062818;28;20041;-84
2022/09/17 12:00:12;;;;;;;4.13;1.10;;;14.20;99.90;;;;;;5015180;28;20440;-85
2022/09/17 12:03:10;;;;;;;5.88;1.10;;;14.20;99.90;;;;;;5052445;28;20115;-84
2022/09/17 12:05:45;;;;;;;9.88;1.45;;;14.30;99.90;;;;;;5050602;28;20041;-85
2022/09/17 12:08:50;;;;;;;9.13;1.27;;;14.40;99.90;;;;;;5058674;28;20059;-84
2022/09/17 12:12:17;;;;;;;4.50;1.08;;;14.40;99.90;;;;;;5045064;28;20237;-84
2022/09/17 12:18:35;;;;;;;5.70;1.20;;;14.10;99.90;;;;;;5032682;28;20053;-85
2022/09/17 12:21:20;;;;;;;4.25;1.10;;;13.80;99.90;;;;;;5019735;28;20492;-85
2022/09/17 12:23:55;;;;;;;3.83;1.20;;;13.60;99.90;;;;;;5029793;28;20047;-84
2022/09/17 12:26:42;;;;;;;6.40;1.27;;;13.50;99.90;;;;;;5022011;28;20136;-84
2022/09/17 12:30:01;;;;;;;5.20;1.33;;;13.60;99.90;;;;;;5033299;28;20041;-84
2022/09/17 12:33:15;;;;;;;4.43;0.98;;;13.60;99.90;;;;;;4984818;28;20081;-84
2022/09/17 12:36:13;;;;;;;6.10;1.63;;;13.70;99.90;;;;;;4999126;28;20108;-84
2022/09/17 12:42:22;;;;;;;13.75;2.40;;;13.90;99.90;;;;;;4996527;28;20056;-85
2022/09/17 12:45:11;;;;;;;9.48;1.70;;;14.10;99.90;;;;;;4990711;28;20450;-85
2022/09/17 12:51:11;;;;;;;12.45;2.80;;;14.40;99.90;;;;;;5034973;28;20041;-85
2022/09/17 12:54:13;;;;;;;10.48;1.90;;;14.60;99.90;;;;;;5010432;28;20513;-84
2022/09/17 12:57:16;;;;;;;8.98;1.88;;;14.70;99.90;;;;;;5002953;28;20422;-84
2022/09/17 13:04:03;;;;;;;8.73;1.95;;;14.90;99.90;;;;;;4954953;28;20427;-84
2022/09/17 13:07:06;;;;;;;9.52;2.28;;;15.20;99.90;;;;;;4944541;29;20450;-84
2022/09/17 13:13:56;;;;;;;8.85;2.03;;;16.20;99.90;;;;;;4936008;28;20411;-84
2022/09/17 13:16:57;;;;;;;9.17;1.60;;;16.40;99.90;;;;;;4972126;28;20396;-83
2022/09/17 13:23:11;;;;;;;13.27;2.42;;;17.30;99.10;;;;;;4991481;28;20370;-84
2022/09/17 13:30:04;;;;;;;10.30;2.13;;;17.30;95.60;;;;;;5019062;28;20432;-84
2022/09/17 13:32:40;;;;;;;14.57;2.47;;;16.60;94.30;;;;;;5029024;28;20048;-84
2022/09/17 13:35:44;;;;;;;10.15;1.92;;;16.10;96.90;;;;;;5050385;28;20049;-84
2022/09/17 13:38:31;;;;;;;7.55;1.38;;;15.60;98.90;;;;;;5017495;28;20040;-84
2022/09/17 13:41:38;;;;;;;;;;;;;;;;;;;;;
2022/09/17 13:44:31;;;;;;;9.60;2.00;;;14.60;99.90;;;;;;5065702;28;20062;-85
2022/09/17 13:47:52;;;;;;;5.95;1.42;;;14.30;99.90;;;;;;5022320;28;20045;-85
2022/09/17 13:50:51;;;;;;;7.20;1.67;;;14.10;99.90;;;;;;5016271;28;20053;-84
2022/09/17 13:56:30;;;;;;;12.60;2.42;;;14.10;99.90;;;;;;5004554;28;20512;-84
2022/09/17 13:59:38;;;;;;;12.90;2.10;;;14.10;99.90;;;;;;5000619;28;20588;-84
2022/09/17 14:02:30;;;;;;;9.02;1.63;;;14.20;99.90;;;;;;4976835;28;20132;-84
2022/09/17 14:05:30;;;;;;;8.63;1.35;;;14.30;99.90;;;;;;5014747;28;20053;-84
2022/09/17 14:08:49;;;;;;;6.78;1.13;;;14.30;99.90;;;;;;5005157;28;20421;-85
2022/09/17 14:11:47;;;;;;;8.35;1.20;;;14.40;99.90;;;;;;5005151;28;20085;-84
2022/09/17 14:15:02;;;;;;;6.65;1.30;;;14.60;99.90;;;;;;4988305;28;20049;-84
2022/09/17 14:21:38;;;;;;;6.05;1.20;;;14.60;99.90;;;;;;5042722;28;20101;-85
2022/09/17 14:24:37;;;;;;;3.55;1.00;;;14.60;99.90;;;;;;5057851;28;20115;-84
2022/09/17 14:31:43;;;;;;;2.72;0.95;;;14.60;99.90;;;;;;5074789;28;20039;-84
2022/09/17 14:35:03;;;;;;;7.15;1.00;;;14.70;99.90;;;;;;5042612;28;20097;-86
2022/09/17 14:37:59;;;;;;;6.95;1.80;;;14.80;99.90;;;;;;5099047;28;20060;-85
2022/09/17 14:40:27;;;;;;;2.72;0.70;;;14.80;99.90;;;;;;5069773;28;20060;-84
2022/09/17 14:46:45;;;;;;;4.10;0.98;;;14.80;99.90;;;;;;5088148;28;20091;-84
2022/09/17 14:49:51;;;;;;;4.25;1.15;;;14.90;99.90;;;;;;5077699;28;20041;-85
2022/09/17 14:58:45;;;;;;;4.18;1.33;;;14.40;99.90;;;;;;5078249;28;20504;-84
2022/09/17 15:01:37;;;;;;;4.25;0.80;;;14.20;99.90;;;;;;5074010;28;20146;-84
2022/09/17 15:04:19;;;;;;;3.42;0.70;;;14.10;99.90;;;;;;5012446;28;20050;-85
2022/09/17 15:07:11;;;;;;;2.70;0.60;;;13.90;99.90;;;;;;5064724;28;20081;-85
2022/09/17 15:09:44;;;;;;;4.88;1.05;;;13.80;99.90;;;;;;5064810;28;20044;-84
2022/09/17 15:12:21;;;;;;;4.43;0.90;;;13.70;99.90;;;;;;5066693;28;20089;-85
2022/09/17 15:15:21;;;;;;;6.57;1.20;;;13.60;99.90;;;;;;5076778;28;20036;-83
2022/09/17 15:17:50;;;;;;;;;;;13.60;99.90;;;;;;5053512;28;20048;-83
2022/09/17 15:20:32;;;;;;;4.00;0.77;;;13.60;99.90;;;;;;5060502;28;19933;-85
2022/09/17 15:23:29;;;;;;;4.10;1.10;;;13.60;99.90;;;;;;5074055;28;20407;-84
2022/09/17 15:26:19;;;;;;;6.90;1.38;;;13.70;99.90;;;;;;5067345;28;20460;-92
2022/09/17 15:32:36;;;;;;;7.03;1.48;;;13.80;99.90;;;;;;5090529;28;20044;-87
2022/09/17 15:35:17;;;;;;;8.70;1.50;;;13.80;99.90;;;;;;5055294;28;20054;-86
2022/09/17 15:40:49;;;;;;;8.57;1.45;;;14.00;99.90;;;;;;5079822;28;20098;-86
2022/09/17 15:43:32;;;;;;;8.93;2.08;;;14.10;99.90;;;;;;5067518;28;20045;-86
2022/09/17 15:53:54;;;;;;;9.85;1.50;;;14.30;99.90;;;;;;5068427;28;20035;-87
2022/09/17 15:57:20;;;;;;;10.27;1.70;;;14.20;99.90;;;;;;5064087;28;20126;-86
2022/09/17 15:59:46;;;;;;;12.50;1.90;;;14.20;99.90;;;;;;5054029;28;20098;-86
2022/09/17 16:03:15;;;;;;;11.02;1.75;;;14.20;99.90;;;;;;5039351;28;20040;-86
2022/09/17 16:06:40;;;;;;;10.68;1.77;;;14.30;99.90;;;;;;5047916;28;20044;-87
2022/09/17 16:09:47;;;;;;;10.60;1.40;;;14.20;99.90;;;;;;5059105;28;20061;-87
2022/09/17 16:12:59;;;;;;;12.00;2.00;;;14.10;99.90;;;;;;5071008;28;20044;-87
2022/09/17 16:15:55;;;;;;;8.90;1.85;;;14.20;99.90;;;;;;5068152;28;20053;-88
2022/09/17 16:18:21;;;;;;;6.93;1.45;;;14.30;99.90;;;;;;5060765;28;20616;-87
2022/09/17 16:21:01;;;;;;;13.70;2.55;;;14.30;99.90;;;;;;5062861;28;20443;-87
2022/09/17 16:23:47;;;;;;;8.18;2.05;;;14.30;99.90;;;;;;5044569;28;20495;-87
2022/09/17 16:26:29;;;;;;;9.55;2.00;;;14.30;99.90;;;;;;5078377;28;20574;-87
2022/09/17 16:32:40;;;;;;;9.90;1.70;;;14.30;99.90;;;;;;5040872;28;20040;-87
2022/09/17 16:35:47;;;;;;;10.98;2.20;;;14.40;99.90;;;;;;5075733;28;20379;-87
2022/09/17 16:47:00;;;;;;;10.30;1.80;;;14.70;99.90;;;;;;5045757;28;20053;-86
2022/09/17 16:49:59;;;;;;;13.43;2.22;;;14.50;99.90;;;;;;5038197;28;20043;-87
2022/09/17 16:52:40;;;;;;;8.18;1.65;;;14.30;99.90;;;;;;5037417;28;20065;-86
2022/09/17 16:55:13;;;;;;;12.75;1.77;;;14.10;99.90;;;;;;5016891;28;20045;-85
2022/09/17 16:58:09;;;;;;;10.25;1.70;;;13.90;99.90;;;;;;5017859;28;20048;-85
2022/09/17 17:00:42;;;;;;;10.63;2.47;;;13.80;99.90;;;;;;5037469;28;20088;-89
2022/09/17 17:10:09;;;;;;;11.25;1.75;;;13.50;99.90;;;;;;5044730;28;20071;-91
2022/09/17 17:13:13;;;;;;;10.40;1.77;;;13.40;99.90;;;;;;5024397;28;20122;-92
2022/09/17 17:16:25;;;;;;;7.68;1.83;;;13.40;99.90;;;;;;5025982;28;20053;-92
2022/09/17 17:19:18;;;;;;;7.95;1.98;;;13.40;99.90;;;;;;5015399;28;20044;-90
2022/09/17 17:22:28;;;;;;;10.60;2.28;;;13.30;99.90;;;;;;5012815;28;20041;-92
2022/09/17 17:25:13;;;;;;;7.35;1.60;;;13.30;99.90;;;;;;5045186;28;20171;-91
2022/09/17 17:28:13;;;;;;;8.63;2.08;;;13.30;99.90;;;;;;5045134;28;20449;-91
2022/09/17 17:34:30;;;;;;;8.73;1.90;;;12.60;99.90;;;;;;5006351;28;20047;-91
2022/09/17 17:41:31;;;;;;;;;;;;;;;;;;;;;
2022/09/17 17:44:12;;;;;;;9.15;1.65;;;13.00;99.90;;;;;;5020919;28;20080;-92
2022/09/17 17:46:50;;;;;;;7.07;1.63;;;13.10;99.90;;;;;;5025372;28;20505;-91
2022/09/17 17:53:18;;;;;;;9.98;2.00;;;12.90;99.90;;;;;;5028492;28;20034;-91
2022/09/17 17:56:04;;;;;;;7.78;1.73;;;12.60;99.90;;;;;;5019244;28;20461;-91
2022/09/17 18:02:18;;;;;;;5.70;1.38;;;12.30;99.90;;;;;;4993897;28;20042;-91
2022/09/17 18:05:59;;;;;;;6.45;1.23;;;12.20;99.90;;;;;;4990705;28;20178;-91
2022/09/17 18:15:59;;;;;;;5.00;1.40;;;12.10;99.90;;;;;;5016786;28;20025;-90
2022/09/17 18:22:01;;;;;;;5.63;1.50;;;12.10;99.90;;;;;;4984885;28;20046;-89
2022/09/17 18:31:25;;;;;;;6.40;1.48;;;12.00;99.90;;;;;;5065120;28;20086;-85
2022/09/17 18:33:58;;;;;;;11.52;1.55;;;12.00;99.90;;;;;;5061613;28;20044;-87
2022/09/17 18:37:03;;;;;;;7.25;1.50;;;12.00;99.90;;;;;;5061634;28;20044;-86
2022/09/17 18:39:53;;;;;;;9.60;1.70;;;12.00;99.90;;;;;;5071504;28;20044;-86
2022/09/17 18:42:26;;;;;;;7.68;1.90;;;12.00;99.90;;;;;;5078049;28;20073;-87
2022/09/17 18:45:12;;;;;;;8.27;1.90;;;12.00;99.90;;;;;;5055655;28;20460;-87
2022/09/17 18:52:18;;;;;;;11.65;2.47;;;12.10;99.90;;;;;;5062361;28;20040;-86
2022/09/17 18:54:51;;;;;;;9.52;2.40;;;12.10;99.90;;;;;;5040549;28;20037;-86
2022/09/17 18:57:28;;;;;;;7.60;1.55;;;12.10;99.90;;;;;;5037225;28;20398;-86
2022/09/17 19:00:08;;;;;;;6.28;1.65;;;11.80;99.90;;;;;;5047059;28;20053;-87
2022/09/17 19:02:37;;;;;;;10.00;1.73;;;12.10;99.90;;;;;;5032055;28;20212;-86
2022/09/17 19:05:15;;;;;;;7.25;1.33;;;12.00;99.90;;;;;;4980071;28;20049;-86
2022/09/17 19:08:19;;;;;;;8.32;1.75;;;12.00;99.90;;;;;;5031992;28;20095;-86
2022/09/17 19:10:52;;;;;;;6.32;1.60;;;11.90;99.90;;;;;;5028926;28;20045;-86
2022/09/17 19:13:39;;;;;;;8.23;1.63;;;11.90;99.90;;;;;;5001334;28;20053;-86